createdAt,value
2023-06-14T00:01:41.554Z,16.55
2023-06-14T00:04:12.127Z,16.47
2023-06-14T00:06:42.800Z,16.47
2023-06-14T00:09:13.856Z,16.38
2023-06-14T00:11:46.362Z,16.36
2023-06-14T00:14:16.135Z,16.35
2023-06-14T00:16:46.283Z,16.29
2023-06-14T00:19:17.663Z,16.22
2023-06-14T00:21:48.044Z,16.15
2023-06-14T00:24:18.051Z,16.14
2023-06-14T00:26:50.726Z,16.03
2023-06-14T00:29:20.682Z,16.01
2023-06-14T00:31:50.678Z,15.97
2023-06-14T00:34:22.163Z,15.93
2023-06-14T00:36:51.921Z,15.90
2023-06-14T00:39:21.672Z,15.85
2023-06-14T00:41:53.992Z,15.82
2023-06-14T00:44:24.942Z,15.78
2023-06-14T00:46:54.740Z,15.72
2023-06-14T00:49:26.899Z,15.67
2023-06-14T00:51:56.839Z,15.63
2023-06-14T00:54:26.586Z,15.63
2023-06-14T00:56:58.947Z,15.56
2023-06-14T00:59:29.053Z,15.53
2023-06-14T01:01:59.153Z,15.50
2023-06-14T01:04:28.952Z,15.47
2023-06-14T01:07:05.042Z,15.42
2023-06-14T01:09:43.176Z,15.40
2023-06-14T01:12:19.858Z,15.38
2023-06-14T01:14:51.505Z,15.34
2023-06-14T01:17:24.386Z,15.32
2023-06-14T01:19:58.941Z,15.30
2023-06-14T01:22:30.122Z,15.26
2023-06-14T01:25:02.561Z,15.27
2023-06-14T01:27:33.810Z,15.25
2023-06-14T01:30:06.595Z,15.21
2023-06-14T01:32:36.394Z,15.19
2023-06-14T01:35:06.770Z,15.21
2023-06-14T01:37:36.698Z,15.22
2023-06-14T01:40:11.633Z,15.21
2023-06-14T01:42:42.745Z,15.14
2023-06-14T01:45:14.381Z,15.16
2023-06-14T01:47:44.672Z,15.13
2023-06-14T01:50:14.823Z,15.10
2023-06-14T01:52:44.839Z,15.04
2023-06-14T01:55:19.105Z,15.03
2023-06-14T01:57:48.902Z,15.02
2023-06-14T02:00:20.384Z,14.96
2023-06-14T02:02:51.626Z,14.94
2023-06-14T02:05:22.940Z,14.90
2023-06-14T02:07:52.749Z,14.88
2023-06-14T02:10:25.123Z,14.85
2023-06-14T02:12:54.941Z,14.84
2023-06-14T02:15:24.990Z,14.80
2023-06-14T02:17:55.370Z,14.78
2023-06-14T02:20:25.180Z,14.74
2023-06-14T02:22:54.870Z,14.72
2023-06-14T02:25:29.115Z,14.68
2023-06-14T02:27:59.171Z,14.66
2023-06-14T02:30:28.863Z,14.63
2023-06-14T02:33:00.440Z,14.58
2023-06-14T02:35:30.915Z,14.56
2023-06-14T02:38:00.648Z,14.54
2023-06-14T02:40:32.936Z,14.47
2023-06-14T02:43:03.148Z,14.44
2023-06-14T02:45:32.886Z,14.44
2023-06-14T02:48:02.686Z,14.38
2023-06-14T02:50:33.618Z,14.36
2023-06-14T02:53:04.058Z,14.33
2023-06-14T02:55:40.362Z,14.31
2023-06-14T02:58:11.296Z,14.30
2023-06-14T03:00:42.267Z,14.28
2023-06-14T03:03:15.568Z,14.27
2023-06-14T03:05:52.338Z,14.19
2023-06-14T03:08:28.468Z,14.18
2023-06-14T03:11:03.436Z,14.13
2023-06-14T03:13:33.598Z,14.11
2023-06-14T03:16:04.172Z,14.07
2023-06-14T03:18:37.205Z,14.07
2023-06-14T03:21:10.313Z,14.00
2023-06-14T03:23:44.810Z,13.96
2023-06-14T03:26:19.170Z,13.94
2023-06-14T03:28:51.373Z,13.93
2023-06-14T03:31:22.521Z,13.89
2023-06-14T03:33:52.268Z,13.85
2023-06-14T03:36:23.937Z,13.83
2023-06-14T03:38:53.788Z,13.80
2023-06-14T03:41:26.432Z,13.78
2023-06-14T03:43:57.650Z,13.77
2023-06-14T03:46:27.669Z,13.76
2023-06-14T03:48:58.383Z,13.69
2023-06-14T03:51:29.704Z,13.71
2023-06-14T03:56:38.434Z,13.65
2023-06-14T03:59:11.356Z,13.63
2023-06-14T04:01:47.469Z,13.62
2023-06-14T04:04:19.888Z,13.62
2023-06-14T04:06:51.131Z,13.61
2023-06-14T04:09:21.418Z,13.59
2023-06-14T04:11:53.754Z,13.55
2023-06-14T04:14:23.546Z,13.54
2023-06-14T04:16:53.799Z,13.51
2023-06-14T04:19:24.544Z,13.51
2023-06-14T04:21:54.376Z,13.50
2023-06-14T04:24:30.186Z,13.46
2023-06-14T04:27:03.531Z,13.49
2023-06-14T04:29:34.652Z,13.47
2023-06-14T04:32:11.357Z,13.49
2023-06-14T04:34:42.612Z,13.51
2023-06-14T04:37:13.111Z,13.54
2023-06-14T04:39:46.270Z,13.53
2023-06-14T04:42:22.009Z,13.55
2023-06-14T04:44:51.929Z,13.56
2023-06-14T04:47:22.248Z,13.60
2023-06-14T04:49:54.728Z,13.59
2023-06-14T04:52:27.709Z,13.63
2023-06-14T04:54:59.078Z,13.65
2023-06-14T04:57:31.736Z,13.69
2023-06-14T05:00:05.884Z,13.74
2023-06-14T05:02:37.006Z,13.75
2023-06-14T05:05:10.421Z,13.77
2023-06-14T05:07:42.588Z,13.81
2023-06-14T05:10:13.826Z,13.84
2023-06-14T05:12:46.997Z,13.84
2023-06-14T05:15:17.781Z,13.85
2023-06-14T05:17:54.496Z,13.88
2023-06-14T05:20:24.361Z,13.88
2023-06-14T05:22:54.345Z,13.92
2023-06-14T05:25:24.501Z,13.95
2023-06-14T05:27:56.928Z,13.98
2023-06-14T05:30:27.304Z,14.02
2023-06-14T05:32:57.166Z,14.04
2023-06-14T05:35:27.915Z,14.07
2023-06-14T05:37:57.717Z,14.09
2023-06-14T05:40:27.554Z,14.13
2023-06-14T05:42:59.986Z,14.14
2023-06-14T05:45:29.761Z,14.18
2023-06-14T05:47:59.547Z,14.21
2023-06-14T05:50:29.383Z,14.21
2023-06-14T05:52:59.135Z,14.24
2023-06-14T05:55:28.944Z,14.29
2023-06-14T05:58:01.939Z,14.31
2023-06-14T06:00:31.731Z,14.39
2023-06-14T06:03:02.260Z,14.52
2023-06-14T06:05:32.444Z,14.56
2023-06-14T06:08:02.184Z,14.59
2023-06-14T06:10:31.883Z,14.63
2023-06-14T06:13:04.213Z,14.67
2023-06-14T06:15:33.959Z,14.70
2023-06-14T06:18:03.632Z,14.81
2023-06-14T06:20:33.587Z,14.94
2023-06-14T06:23:03.566Z,15.12
2023-06-14T06:25:33.650Z,15.22
2023-06-14T06:28:08.089Z,15.31
2023-06-14T06:30:38.167Z,15.53
2023-06-14T06:33:07.980Z,15.69
2023-06-14T06:35:38.686Z,15.74
2023-06-14T06:38:09.941Z,15.93
2023-06-14T06:40:39.827Z,15.99
2023-06-14T06:43:14.733Z,16.08
2023-06-14T06:45:49.326Z,16.16
2023-06-14T06:48:19.460Z,16.38
2023-06-14T06:50:49.209Z,16.51
2023-06-14T06:53:26.837Z,16.65
2023-06-14T06:56:05.431Z,16.88
2023-06-14T06:58:37.758Z,16.93
2023-06-14T07:01:07.605Z,17.05
2023-06-14T07:03:37.378Z,17.14
2023-06-14T07:06:07.624Z,17.25
2023-06-14T07:08:39.799Z,17.39
2023-06-14T07:11:10.116Z,17.61
2023-06-14T07:13:42.603Z,17.71
2023-06-14T07:16:12.746Z,17.87
2023-06-14T07:18:42.572Z,18.05
2023-06-14T07:21:12.313Z,18.16
2023-06-14T07:23:42.183Z,18.25
2023-06-14T07:26:11.992Z,18.38
2023-06-14T07:28:46.173Z,18.50
2023-06-14T07:31:16.548Z,18.65
2023-06-14T07:33:46.505Z,18.82
2023-06-14T07:36:16.560Z,19.00
2023-06-14T07:38:46.288Z,19.15
2023-06-14T07:41:16.032Z,19.32
2023-06-14T07:43:48.319Z,19.52
2023-06-14T07:46:18.485Z,19.74
2023-06-14T07:48:48.276Z,19.92
2023-06-14T07:51:18.237Z,20.11
2023-06-14T07:53:48.324Z,20.28
2023-06-14T07:56:18.180Z,20.44
2023-06-14T07:58:50.461Z,20.62
2023-06-14T08:01:21.310Z,20.78
2023-06-14T08:03:51.275Z,20.88
2023-06-14T08:06:21.232Z,21.00
2023-06-14T08:08:51.012Z,20.99
2023-06-14T08:11:20.729Z,21.13
2023-06-14T08:13:53.060Z,21.20
2023-06-14T08:16:22.852Z,21.39
2023-06-14T08:18:53.004Z,21.48
2023-06-14T08:21:23.130Z,21.66
2023-06-14T08:23:54.347Z,21.69
2023-06-14T08:26:24.271Z,21.72
2023-06-14T08:28:56.645Z,21.77
2023-06-14T08:31:26.732Z,21.70
2023-06-14T08:33:56.538Z,21.80
2023-06-14T08:36:26.462Z,21.85
2023-06-14T08:38:57.102Z,21.94
2023-06-14T08:41:28.368Z,21.96
2023-06-14T08:44:00.956Z,21.87
2023-06-14T08:46:31.334Z,21.83
2023-06-14T08:49:01.273Z,21.77
2023-06-14T08:51:35.153Z,21.89
2023-06-14T08:54:05.251Z,21.95
2023-06-14T08:56:35.730Z,21.88
2023-06-14T08:59:10.031Z,22.04
2023-06-14T09:01:44.389Z,21.99
2023-06-14T09:04:19.674Z,22.08
2023-06-14T09:06:54.082Z,22.21
2023-06-14T09:09:24.118Z,22.22
2023-06-14T09:11:54.259Z,22.23
2023-06-14T09:14:27.869Z,22.32
2023-06-14T09:16:58.056Z,22.30
2023-06-14T09:19:28.670Z,22.34
2023-06-14T09:21:58.402Z,22.30
2023-06-14T09:24:29.193Z,22.37
2023-06-14T09:26:59.370Z,22.42
2023-06-14T09:29:32.982Z,22.41
2023-06-14T09:32:03.078Z,22.54
2023-06-14T09:34:32.784Z,22.57
2023-06-14T09:37:02.532Z,22.61
2023-06-14T09:39:32.238Z,22.70
2023-06-14T09:42:02.070Z,22.67
2023-06-14T09:44:35.018Z,22.77
2023-06-14T09:47:07.226Z,22.77
2023-06-14T09:49:37.169Z,22.75
2023-06-14T09:52:08.234Z,22.77
2023-06-14T09:54:41.030Z,22.83
2023-06-14T09:57:12.853Z,22.95
2023-06-14T09:59:48.812Z,22.92
2023-06-14T10:02:29.798Z,22.91
2023-06-14T10:05:05.167Z,22.81
2023-06-14T10:07:46.491Z,22.88
2023-06-14T10:10:16.673Z,22.97
2023-06-14T10:12:46.598Z,23.02
2023-06-14T10:15:22.720Z,23.05
2023-06-14T10:17:56.645Z,23.13
2023-06-14T10:20:32.995Z,23.21
2023-06-14T10:23:06.373Z,23.11
2023-06-14T10:25:36.925Z,23.13
2023-06-14T10:28:18.857Z,23.15
2023-06-14T10:31:09.797Z,23.15
2023-06-14T10:33:42.429Z,23.23
2023-06-14T10:36:15.030Z,23.30
2023-06-14T10:38:46.130Z,23.27
2023-06-14T10:41:16.256Z,23.34
2023-06-14T10:43:45.987Z,23.34
2023-06-14T10:46:24.290Z,23.38
2023-06-14T10:49:01.176Z,23.34
2023-06-14T10:51:34.057Z,23.34
2023-06-14T10:54:04.351Z,23.35
2023-06-14T10:56:34.843Z,23.40
2023-06-14T10:59:04.564Z,23.52
2023-06-14T11:01:45.271Z,23.63
2023-06-14T11:04:15.587Z,23.70
2023-06-14T11:06:51.082Z,23.73
2023-06-14T11:09:49.421Z,23.66
2023-06-14T11:12:19.871Z,23.64
2023-06-14T11:14:50.604Z,23.65
2023-06-14T11:17:23.027Z,23.67
2023-06-14T11:19:52.754Z,23.71
2023-06-14T11:22:22.585Z,23.78
2023-06-14T11:24:52.365Z,23.88
2023-06-14T11:27:22.248Z,23.94
2023-06-14T11:29:52.520Z,23.86
2023-06-14T11:32:24.914Z,23.89
2023-06-14T11:34:54.801Z,23.89
2023-06-14T11:37:25.788Z,23.75
2023-06-14T11:39:55.661Z,23.81
2023-06-14T11:42:25.364Z,23.89
2023-06-14T11:45:02.806Z,23.90
2023-06-14T11:47:43.659Z,23.92
2023-06-14T11:50:13.877Z,23.96
2023-06-14T11:52:43.578Z,23.94
2023-06-14T11:55:13.521Z,23.78
2023-06-14T11:57:43.857Z,23.83
2023-06-14T12:00:16.767Z,23.93
2023-06-14T12:02:57.257Z,23.85
2023-06-14T12:05:27.942Z,23.90
2023-06-14T12:08:02.707Z,23.79
2023-06-14T12:10:33.022Z,23.83
2023-06-14T12:13:03.114Z,23.96
2023-06-14T12:15:33.277Z,23.95
2023-06-14T12:18:06.747Z,23.90
2023-06-14T12:20:37.812Z,23.96
2023-06-14T12:23:09.687Z,23.99
2023-06-14T12:25:41.981Z,24.08
2023-06-14T12:28:12.728Z,24.11
2023-06-14T12:30:42.526Z,24.14
2023-06-14T12:33:14.947Z,24.05
2023-06-14T12:35:45.029Z,24.18
2023-06-14T12:38:16.576Z,24.30
2023-06-14T12:40:46.602Z,24.31
2023-06-14T12:43:17.588Z,24.40
2023-06-14T12:45:49.249Z,24.36
2023-06-14T12:48:21.708Z,24.40
2023-06-14T12:50:51.845Z,24.41
2023-06-14T12:53:22.277Z,24.51
2023-06-14T12:55:52.092Z,24.51
2023-06-14T12:58:21.842Z,24.59
2023-06-14T13:00:51.777Z,24.65
2023-06-14T13:03:24.237Z,24.66
2023-06-14T13:05:54.068Z,24.72
2023-06-14T13:08:25.657Z,24.79
2023-06-14T13:10:55.612Z,24.79
2023-06-14T13:13:25.441Z,24.81
2023-06-14T13:15:55.178Z,24.85
2023-06-14T13:18:27.488Z,24.86
2023-06-14T13:20:57.231Z,24.87
2023-06-14T13:23:26.988Z,24.95
2023-06-14T13:25:56.789Z,24.85
2023-06-14T13:28:26.495Z,24.74
2023-06-14T13:30:56.929Z,24.66
2023-06-14T13:33:29.275Z,24.58
2023-06-14T13:35:59.076Z,24.56
2023-06-14T13:38:28.803Z,24.53
2023-06-14T13:40:58.749Z,24.50
2023-06-14T13:43:28.422Z,24.54
2023-06-14T13:45:58.287Z,24.62
2023-06-14T13:48:30.675Z,24.62
2023-06-14T13:51:00.493Z,24.72
2023-06-14T13:53:30.234Z,24.74
2023-06-14T13:56:00.001Z,24.74
2023-06-14T13:58:30.378Z,24.83
2023-06-14T14:01:00.987Z,24.83
2023-06-14T14:03:33.498Z,24.81
2023-06-14T14:06:04.613Z,24.85
2023-06-14T14:08:34.476Z,24.96
2023-06-14T14:11:04.435Z,24.94
2023-06-14T14:13:34.584Z,24.77
2023-06-14T14:16:04.406Z,24.82
2023-06-14T14:18:37.382Z,24.82
2023-06-14T14:21:07.487Z,24.82
2023-06-14T14:23:38.683Z,24.76
2023-06-14T14:26:09.561Z,24.74
2023-06-14T14:28:39.256Z,24.75
2023-06-14T14:31:08.989Z,24.78
2023-06-14T14:33:41.361Z,24.83
2023-06-14T14:36:11.159Z,24.71
2023-06-14T14:38:40.974Z,24.71
2023-06-14T14:41:10.693Z,24.76
2023-06-14T14:43:40.543Z,24.78
2023-06-14T14:46:10.256Z,24.74
2023-06-14T14:48:42.611Z,24.76
2023-06-14T14:51:12.382Z,24.70
2023-06-14T14:53:42.152Z,24.72
2023-06-14T14:56:13.297Z,24.71
2023-06-14T14:58:43.034Z,24.73
2023-06-14T15:01:14.202Z,24.70
2023-06-14T15:06:21.584Z,24.68
2023-06-14T15:08:52.037Z,24.69
2023-06-14T15:11:23.591Z,24.62
2023-06-14T15:13:53.408Z,24.63
2023-06-14T15:16:23.291Z,24.63
2023-06-14T15:18:55.655Z,24.62
2023-06-14T15:21:25.875Z,24.64
2023-06-14T15:23:55.661Z,24.61
2023-06-14T15:26:25.623Z,24.70
2023-06-14T15:28:55.343Z,24.71
2023-06-14T15:31:28.484Z,24.71
2023-06-14T15:34:00.944Z,24.72
2023-06-14T15:36:30.656Z,24.69
2023-06-14T15:39:00.361Z,24.64
2023-06-14T15:41:30.185Z,24.59
2023-06-14T15:44:00.070Z,24.55
2023-06-14T15:46:29.901Z,24.58
2023-06-14T15:49:02.267Z,24.58
2023-06-14T15:51:32.044Z,24.56
2023-06-14T15:54:01.858Z,24.48
2023-06-14T15:56:31.526Z,24.49
2023-06-14T15:59:01.504Z,24.48
2023-06-14T16:01:31.357Z,24.52
2023-06-14T16:04:03.786Z,24.48
2023-06-14T16:06:33.571Z,24.51
2023-06-14T16:09:04.099Z,24.45
2023-06-14T16:11:33.876Z,24.45
2023-06-14T16:14:03.554Z,24.45
2023-06-14T16:16:33.333Z,24.44
2023-06-14T16:19:06.630Z,24.47
2023-06-14T16:21:38.130Z,24.40
2023-06-14T16:24:09.492Z,24.43
2023-06-14T16:26:39.316Z,24.42
2023-06-14T16:29:09.044Z,24.45
2023-06-14T16:31:38.891Z,24.43
2023-06-14T16:34:12.704Z,24.47
2023-06-14T16:36:42.599Z,24.58
2023-06-14T16:39:13.015Z,24.47
2023-06-14T16:41:42.716Z,24.44
2023-06-14T16:44:13.418Z,24.49
2023-06-14T16:46:43.249Z,24.43
2023-06-14T16:49:15.689Z,24.67
2023-06-14T16:51:45.461Z,24.63
2023-06-14T16:54:15.161Z,24.68
2023-06-14T16:56:44.865Z,24.90
2023-06-14T16:59:14.573Z,24.77
2023-06-14T17:01:44.327Z,24.72
2023-06-14T17:04:16.856Z,24.65
2023-06-14T17:06:46.726Z,24.64
2023-06-14T17:09:17.620Z,24.70
2023-06-14T17:11:47.473Z,24.95
2023-06-14T17:14:17.501Z,25.13
2023-06-14T17:16:47.318Z,25.39
2023-06-14T17:19:19.868Z,25.74
2023-06-14T17:21:53.107Z,26.20
2023-06-14T17:24:26.390Z,26.70
2023-06-14T17:26:58.487Z,26.50
2023-06-14T17:29:28.375Z,26.11
2023-06-14T17:31:58.307Z,25.83
2023-06-14T17:34:30.689Z,25.55
2023-06-14T17:37:00.484Z,25.35
2023-06-14T17:39:30.282Z,25.16
2023-06-14T17:42:00.025Z,25.10
2023-06-14T17:44:29.811Z,25.05
2023-06-14T17:46:59.504Z,25.00
2023-06-14T17:49:31.879Z,24.81
2023-06-14T17:52:02.437Z,24.62
2023-06-14T17:54:33.131Z,24.48
2023-06-14T17:57:02.845Z,24.37
2023-06-14T17:59:32.564Z,24.26
2023-06-14T18:02:02.472Z,24.08
2023-06-14T18:04:35.442Z,24.02
2023-06-14T18:07:05.356Z,23.95
2023-06-14T18:09:35.136Z,23.89
2023-06-14T18:12:04.895Z,23.80
2023-06-14T18:14:34.618Z,23.73
2023-06-14T18:17:04.436Z,23.69
2023-06-14T18:19:37.969Z,23.58
2023-06-14T18:22:09.050Z,23.54
2023-06-14T18:24:38.903Z,23.48
2023-06-14T18:27:12.264Z,23.42
2023-06-14T18:29:42.027Z,23.36
2023-06-14T18:32:12.509Z,23.29
2023-06-14T18:34:44.904Z,23.26
2023-06-14T18:37:14.917Z,23.19
2023-06-14T18:39:44.907Z,23.10
2023-06-14T18:42:14.744Z,23.04
2023-06-14T18:44:44.492Z,22.96
2023-06-14T18:47:14.895Z,22.92
2023-06-14T18:49:47.278Z,22.86
2023-06-14T18:52:17.288Z,22.81
2023-06-14T18:54:47.269Z,22.77
2023-06-14T18:57:17.065Z,22.73
2023-06-14T18:59:46.745Z,22.69
2023-06-14T19:02:16.552Z,22.63
2023-06-14T19:04:48.993Z,22.57
2023-06-14T19:07:18.909Z,22.51
2023-06-14T19:09:48.616Z,22.47
2023-06-14T19:12:18.422Z,22.41
2023-06-14T19:14:48.191Z,22.33
2023-06-14T19:17:17.965Z,22.27
2023-06-14T19:19:50.454Z,22.20
2023-06-14T19:22:20.228Z,22.21
2023-06-14T19:24:49.963Z,22.09
2023-06-14T19:27:19.746Z,22.09
2023-06-14T19:29:49.397Z,22.03
2023-06-14T19:32:19.207Z,21.97
2023-06-14T19:34:52.091Z,21.91
2023-06-14T19:37:21.851Z,21.83
2023-06-14T19:39:51.773Z,21.76
2023-06-14T19:42:21.569Z,21.67
2023-06-14T19:44:51.424Z,21.60
2023-06-14T19:47:21.321Z,21.52
2023-06-14T19:49:53.787Z,21.44
2023-06-14T19:52:24.776Z,21.38
2023-06-14T19:54:54.566Z,21.30
2023-06-14T19:59:53.786Z,21.13
2023-06-14T20:02:23.567Z,21.06
2023-06-14T20:04:56.052Z,20.97
2023-06-14T20:07:26.670Z,20.92
2023-06-14T20:09:56.449Z,20.84
2023-06-14T20:12:26.198Z,20.78
2023-06-14T20:14:55.893Z,20.72
2023-06-14T20:17:25.608Z,20.63
2023-06-14T20:19:57.921Z,20.57
2023-06-14T20:22:27.682Z,20.51
2023-06-14T20:24:57.402Z,20.43
2023-06-14T20:27:27.193Z,20.36
2023-06-14T20:29:56.884Z,20.30
2023-06-14T20:32:27.542Z,20.26
2023-06-14T20:35:00.127Z,20.22
2023-06-14T20:37:30.140Z,20.14
2023-06-14T20:40:03.675Z,20.10
2023-06-14T20:42:34.082Z,20.02
2023-06-14T20:45:04.009Z,19.97
2023-06-14T20:47:33.899Z,19.91
2023-06-14T20:50:06.490Z,19.84
2023-06-14T20:52:36.293Z,19.79
2023-06-14T20:55:06.154Z,19.75
2023-06-14T20:57:36.279Z,19.70
2023-06-14T21:00:11.871Z,19.66
2023-06-14T21:02:42.166Z,19.61
2023-06-14T21:05:14.907Z,19.56
2023-06-14T21:07:44.642Z,19.51
2023-06-14T21:10:14.592Z,19.47
2023-06-14T21:12:44.434Z,19.41
2023-06-14T21:15:14.743Z,19.35
2023-06-14T21:17:44.563Z,19.26
2023-06-14T21:20:17.165Z,19.21
2023-06-14T21:22:47.665Z,19.12
2023-06-14T21:25:17.554Z,19.05
2023-06-14T21:27:47.252Z,19.00
2023-06-14T21:30:19.249Z,18.93
2023-06-14T21:32:49.308Z,18.87
2023-06-14T21:35:21.728Z,18.83
2023-06-14T21:37:51.446Z,18.77
2023-06-14T21:40:21.211Z,18.72
2023-06-14T21:42:51.038Z,18.63
2023-06-14T21:45:20.856Z,18.58
2023-06-14T21:47:51.679Z,18.51
2023-06-14T21:50:25.311Z,18.40
2023-06-14T21:52:55.113Z,18.33
2023-06-14T21:55:26.634Z,18.28
2023-06-14T21:57:56.424Z,18.22
2023-06-14T22:00:26.631Z,18.14
2023-06-14T22:02:56.498Z,18.09
2023-06-14T22:05:28.838Z,18.02
2023-06-14T22:07:59.235Z,17.96
2023-06-14T22:10:30.890Z,17.87
2023-06-14T22:13:01.858Z,17.80
2023-06-14T22:15:31.594Z,17.73
2023-06-14T22:18:01.703Z,17.68
2023-06-14T22:20:34.280Z,17.64
2023-06-14T22:23:04.136Z,17.55
2023-06-14T22:25:34.391Z,17.49
2023-06-14T22:28:06.020Z,17.37
2023-06-14T22:30:37.504Z,17.33
2023-06-14T22:33:07.479Z,17.27
2023-06-14T22:35:40.160Z,17.21
2023-06-14T22:38:10.674Z,17.20
2023-06-14T22:40:41.176Z,17.14
2023-06-14T22:43:11.011Z,17.06
2023-06-14T22:45:41.416Z,16.99
2023-06-14T22:48:11.163Z,16.94
2023-06-14T22:50:43.470Z,16.87
2023-06-14T22:53:13.259Z,16.84
2023-06-14T22:55:43.002Z,16.76
2023-06-14T22:58:16.349Z,16.73
2023-06-14T23:00:47.649Z,16.67
2023-06-14T23:03:17.561Z,16.61
2023-06-14T23:05:49.839Z,16.58
2023-06-14T23:08:19.605Z,16.54
2023-06-14T23:10:49.272Z,16.46
2023-06-14T23:13:19.167Z,16.40
2023-06-14T23:15:48.865Z,16.35
2023-06-14T23:18:18.580Z,16.28
2023-06-14T23:20:50.936Z,16.25
2023-06-14T23:23:21.459Z,16.19
2023-06-14T23:25:55.422Z,16.16
2023-06-14T23:28:25.172Z,16.12
2023-06-14T23:30:55.206Z,16.05
2023-06-14T23:33:26.261Z,15.98
2023-06-14T23:36:03.625Z,15.98
2023-06-14T23:38:33.747Z,15.93
2023-06-14T23:41:06.613Z,15.90
2023-06-14T23:43:38.655Z,15.84
2023-06-14T23:46:08.534Z,15.78
2023-06-14T23:48:38.988Z,15.73
2023-06-14T23:51:11.818Z,15.69
2023-06-14T23:53:41.921Z,15.65
2023-06-14T23:56:12.090Z,15.61
2023-06-14T23:58:41.830Z,15.57
